createdAt,value
2023-12-09T00:02:23.901Z,100945.34
2023-12-09T00:05:26.829Z,100943.47
2023-12-09T00:08:31.055Z,100943.00
2023-12-09T00:11:33.924Z,100949.31
2023-12-09T00:14:36.881Z,100942.00
2023-12-09T00:17:39.783Z,100946.19
2023-12-09T00:20:42.568Z,100946.56
2023-12-09T00:23:49.800Z,100936.13
2023-12-09T00:26:52.656Z,100940.97
2023-12-09T00:29:55.596Z,100948.28
2023-12-09T00:32:58.523Z,100952.50
2023-12-09T00:36:01.336Z,100947.25
2023-12-09T00:39:06.321Z,100953.06
2023-12-09T00:42:09.269Z,100954.53
2023-12-09T00:45:12.652Z,100960.63
2023-12-09T00:48:15.778Z,100952.66
2023-12-09T00:51:18.883Z,100950.97
2023-12-09T00:54:23.039Z,100955.38
2023-12-09T00:57:26.098Z,100960.41
2023-12-09T01:00:28.971Z,100958.50
2023-12-09T01:03:31.969Z,100955.59
2023-12-09T01:06:35.029Z,100958.09
2023-12-09T01:09:39.185Z,100954.16
2023-12-09T01:12:42.249Z,100962.28
2023-12-09T01:15:45.011Z,100973.09
2023-12-09T01:18:48.192Z,100971.84
2023-12-09T01:21:51.014Z,100975.81
2023-12-09T01:24:55.092Z,100975.22
2023-12-09T01:27:57.967Z,100974.81
2023-12-09T01:31:00.959Z,100966.63
2023-12-09T01:34:04.314Z,100971.63
2023-12-09T01:37:07.368Z,100967.09
2023-12-09T01:40:16.781Z,100959.78
2023-12-09T01:43:19.581Z,100965.00
2023-12-09T01:46:23.649Z,100967.91
2023-12-09T01:49:26.982Z,100954.78
2023-12-09T01:52:30.767Z,100958.94
2023-12-09T01:55:35.408Z,100951.66
2023-12-09T01:58:39.656Z,100959.78
2023-12-09T02:01:42.602Z,100969.59
2023-12-09T02:04:45.559Z,100962.50
2023-12-09T02:07:48.262Z,100957.09
2023-12-09T02:11:02.863Z,100956.69
2023-12-09T02:14:09.511Z,100951.03
2023-12-09T02:17:17.132Z,100956.28
2023-12-09T02:20:20.286Z,100953.38
2023-12-09T02:23:24.383Z,100952.91
2023-12-09T02:26:28.501Z,100951.03
2023-12-09T02:29:41.141Z,100948.34
2023-12-09T02:32:46.095Z,100966.69
2023-12-09T02:35:51.482Z,100964.00
2023-12-09T02:38:56.806Z,100966.25
2023-12-09T02:42:00.706Z,100959.63
2023-12-09T02:45:03.970Z,100950.22
2023-12-09T02:48:07.132Z,100945.00
2023-12-09T02:51:10.212Z,100947.75
2023-12-09T02:54:14.806Z,100948.78
2023-12-09T02:57:17.726Z,100942.75
2023-12-09T03:00:20.538Z,100950.66
2023-12-09T03:03:23.568Z,100945.44
2023-12-09T03:06:26.451Z,100950.91
2023-12-09T03:09:30.736Z,100944.19
2023-12-09T03:12:33.675Z,100948.16
2023-12-09T03:15:36.621Z,100954.00
2023-12-09T03:18:39.690Z,100951.09
2023-12-09T03:21:42.521Z,100952.13
2023-12-09T03:24:46.682Z,100944.66
2023-12-09T03:27:49.522Z,100950.03
2023-12-09T03:30:52.250Z,100940.44
2023-12-09T03:33:56.508Z,100943.38
2023-12-09T03:36:59.604Z,100938.38
2023-12-09T03:40:11.265Z,100938.56
2023-12-09T03:43:14.069Z,100940.47
2023-12-09T03:46:17.086Z,100942.56
2023-12-09T03:49:20.036Z,100938.81
2023-12-09T03:52:22.835Z,100942.38
2023-12-09T03:55:26.952Z,100954.00
2023-12-09T03:58:29.683Z,100958.22
2023-12-09T04:01:32.623Z,100956.53
2023-12-09T04:04:35.419Z,100953.84
2023-12-09T04:07:38.413Z,100947.38
2023-12-09T04:10:42.834Z,100953.00
2023-12-09T04:13:45.794Z,100948.81
2023-12-09T04:16:48.506Z,100955.50
2023-12-09T04:19:53.038Z,100955.28
2023-12-09T04:22:55.927Z,100956.13
2023-12-09T04:26:00.442Z,100963.44
2023-12-09T04:29:04.088Z,100968.84
2023-12-09T04:32:07.336Z,100960.09
2023-12-09T04:35:10.855Z,100968.44
2023-12-09T04:38:13.594Z,100960.50
2023-12-09T04:41:17.790Z,100959.25
2023-12-09T04:44:20.667Z,100953.63
2023-12-09T04:47:23.692Z,100958.63
2023-12-09T04:50:26.932Z,100953.63
2023-12-09T04:53:29.661Z,100947.78
2023-12-09T04:56:33.917Z,100943.19
2023-12-09T04:59:36.826Z,100951.53
2023-12-09T05:02:39.598Z,100947.59
2023-12-09T05:05:42.682Z,100944.69
2023-12-09T05:08:45.428Z,100936.13
2023-12-09T05:11:49.526Z,100935.72
2023-12-09T05:14:52.244Z,100939.47
2023-12-09T05:17:55.720Z,100929.25
2023-12-09T05:20:58.640Z,100935.28
2023-12-09T05:24:01.420Z,100933.63
2023-12-09T05:27:06.185Z,100920.28
2023-12-09T05:30:10.101Z,100924.25
2023-12-09T05:33:12.959Z,100924.66
2023-12-09T05:36:16.032Z,100916.28
2023-12-09T05:39:18.966Z,100908.19
2023-12-09T05:42:23.206Z,100904.41
2023-12-09T05:45:29.661Z,100892.31
2023-12-09T05:48:34.650Z,100885.44
2023-12-09T05:51:37.807Z,100892.13
2023-12-09T05:54:40.644Z,100893.78
2023-12-09T05:57:45.070Z,100897.31
2023-12-09T06:00:48.145Z,100892.72
2023-12-09T06:03:50.962Z,100889.81
2023-12-09T06:06:54.143Z,100890.03
2023-12-09T06:09:56.888Z,100891.06
2023-12-09T06:13:01.170Z,100895.44
2023-12-09T06:16:04.094Z,100892.09
2023-12-09T06:19:06.820Z,100891.72
2023-12-09T06:22:09.732Z,100889.22
2023-12-09T06:25:12.616Z,100887.53
2023-12-09T06:28:16.717Z,100892.97
2023-12-09T06:31:19.429Z,100884.00
2023-12-09T06:34:22.262Z,100884.19
2023-12-09T06:37:25.062Z,100902.16
2023-12-09T06:40:28.036Z,100905.06
2023-12-09T06:43:33.671Z,100895.69
2023-12-09T06:46:39.113Z,100911.75
2023-12-09T06:49:41.925Z,100916.31
2023-12-09T06:52:45.210Z,100914.03
2023-12-09T06:55:47.913Z,100911.13
2023-12-09T06:58:52.465Z,100908.41
2023-12-09T07:01:58.068Z,100911.13
2023-12-09T07:05:00.809Z,100903.00
2023-12-09T07:08:04.019Z,100906.09
2023-12-09T07:11:07.724Z,100912.78
2023-12-09T07:14:11.917Z,100925.31
2023-12-09T07:17:14.776Z,100913.22
2023-12-09T07:20:17.922Z,100913.44
2023-12-09T07:23:20.778Z,100915.50
2023-12-09T07:26:23.515Z,100919.91
2023-12-09T07:29:29.599Z,100914.91
2023-12-09T07:32:33.815Z,100907.81
2023-12-09T07:35:36.856Z,100917.59
2023-12-09T07:38:39.764Z,100911.94
2023-12-09T07:41:44.137Z,100913.84
2023-12-09T07:44:48.289Z,100914.06
2023-12-09T07:47:51.178Z,100922.00
2023-12-09T07:50:53.976Z,100914.44
2023-12-09T07:56:59.637Z,100911.72
2023-12-09T08:00:04.936Z,100923.22
2023-12-09T08:03:07.756Z,100925.75
2023-12-09T08:06:11.640Z,100928.88
2023-12-09T08:09:14.613Z,100935.94
2023-12-09T08:12:17.365Z,100915.47
2023-12-09T08:15:21.600Z,100918.41
2023-12-09T08:18:24.481Z,100907.50
2023-12-09T08:21:27.426Z,100910.66
2023-12-09T08:24:30.305Z,100913.16
2023-12-09T08:27:33.128Z,100912.97
2023-12-09T08:30:37.610Z,100896.69
2023-12-09T08:33:41.269Z,100904.41
2023-12-09T08:36:44.408Z,100899.38
2023-12-09T08:39:48.847Z,100908.78
2023-12-09T08:42:51.963Z,100909.00
2023-12-09T08:45:56.047Z,100908.16
2023-12-09T08:48:58.940Z,100905.22
2023-12-09T08:52:01.773Z,100906.69
2023-12-09T08:55:04.735Z,100898.31
2023-12-09T08:58:07.492Z,100888.50
2023-12-09T09:01:13.414Z,100888.91
2023-12-09T09:04:17.019Z,100893.09
2023-12-09T09:07:20.004Z,100884.72
2023-12-09T09:10:24.029Z,100887.78
2023-12-09T09:13:29.785Z,100874.81
2023-12-09T09:16:34.028Z,100875.03
2023-12-09T09:19:36.939Z,100882.91
2023-12-09T09:22:47.497Z,100880.69
2023-12-09T09:25:52.573Z,100880.63
2023-12-09T09:28:56.297Z,100875.38
2023-12-09T09:32:00.477Z,100880.41
2023-12-09T09:35:04.277Z,100873.91
2023-12-09T09:38:07.489Z,100880.63
2023-12-09T09:41:17.269Z,100872.22
2023-12-09T09:44:23.726Z,100878.47
2023-12-09T09:47:30.907Z,100880.13
2023-12-09T09:50:40.706Z,100856.44
2023-12-09T09:53:52.727Z,100863.38
2023-12-09T09:56:59.193Z,100859.59
2023-12-09T10:00:02.769Z,100857.34
2023-12-09T10:03:07.709Z,100852.94
2023-12-09T10:06:12.877Z,100843.88
2023-12-09T10:09:16.218Z,100837.41
2023-12-09T10:12:19.118Z,100831.88
2023-12-09T10:15:22.656Z,100839.41
2023-12-09T10:18:27.241Z,100842.41
2023-12-09T10:21:30.172Z,100837.22
2023-12-09T10:24:33.152Z,100829.91
2023-12-09T10:27:36.355Z,100833.69
2023-12-09T10:30:39.533Z,100829.84
2023-12-09T10:33:47.118Z,100823.38
2023-12-09T10:36:50.090Z,100819.94
2023-12-09T10:39:54.750Z,100808.56
2023-12-09T10:42:58.833Z,100801.41
2023-12-09T10:46:01.931Z,100791.56
2023-12-09T10:49:07.625Z,100785.03
2023-12-09T10:52:11.777Z,100785.19
2023-12-09T10:55:15.888Z,100777.06
2023-12-09T10:58:20.115Z,100769.34
2023-12-09T11:01:23.860Z,100764.81
2023-12-09T11:04:34.907Z,100764.56
2023-12-09T11:07:41.998Z,100750.88
2023-12-09T11:13:56.826Z,100741.84
2023-12-09T11:17:01.490Z,100730.50
2023-12-09T11:23:16.616Z,100726.00
2023-12-09T11:26:31.590Z,100723.03
2023-12-09T11:29:35.810Z,100717.81
2023-12-09T11:32:38.746Z,100715.69
2023-12-09T11:35:47.002Z,100704.72
2023-12-09T11:38:52.385Z,100705.84
2023-12-09T11:41:58.733Z,100701.53
2023-12-09T11:45:05.025Z,100693.88
2023-12-09T11:48:11.741Z,100707.31
2023-12-09T11:51:17.764Z,100699.41
2023-12-09T11:54:21.959Z,100683.94
2023-12-09T11:57:24.788Z,100669.81
2023-12-09T12:00:29.794Z,100666.13
2023-12-09T12:03:34.034Z,100657.56
2023-12-09T12:06:38.030Z,100656.84
2023-12-09T12:09:46.998Z,100658.94
2023-12-09T12:12:51.576Z,100643.88
2023-12-09T12:15:56.127Z,100644.06
2023-12-09T12:19:02.267Z,100641.16
2023-12-09T12:22:06.444Z,100639.97
2023-12-09T12:25:11.587Z,100638.19
2023-12-09T12:28:18.148Z,100637.00
2023-12-09T12:31:22.087Z,100628.00
2023-12-09T12:34:25.457Z,100626.94
2023-12-09T12:37:30.169Z,100629.56
2023-12-09T12:40:45.287Z,100627.88
2023-12-09T12:43:54.194Z,100613.03
2023-12-09T12:46:57.111Z,100609.59
2023-12-09T12:50:00.279Z,100592.03
2023-12-09T12:53:04.199Z,100589.31
2023-12-09T12:56:09.989Z,100581.13
2023-12-09T12:59:14.906Z,100564.44
2023-12-09T13:02:23.409Z,100568.38
2023-12-09T13:05:26.500Z,100571.09
2023-12-09T13:08:29.406Z,100572.31
2023-12-09T13:11:33.631Z,100567.78
2023-12-09T13:14:36.623Z,100560.72
2023-12-09T13:17:40.264Z,100548.88
2023-12-09T13:20:48.084Z,100533.56
2023-12-09T13:23:51.070Z,100524.13
2023-12-09T13:27:00.011Z,100527.53
2023-12-09T13:30:05.621Z,100512.25
2023-12-09T13:33:08.731Z,100506.69
2023-12-09T13:36:13.877Z,100505.75
2023-12-09T13:39:17.058Z,100511.31
2023-12-09T13:42:21.411Z,100504.66
2023-12-09T13:45:25.708Z,100510.47
2023-12-09T13:48:29.950Z,100504.31
2023-12-09T13:51:33.165Z,100519.38
2023-12-09T13:54:36.846Z,100512.25
2023-12-09T13:57:41.891Z,100506.94
2023-12-09T14:00:46.777Z,100505.63
2023-12-09T14:03:54.844Z,100499.81
2023-12-09T14:06:58.989Z,100504.56
2023-12-09T14:10:02.259Z,100492.09
2023-12-09T14:13:09.272Z,100484.06
2023-12-09T14:16:12.376Z,100477.53
2023-12-09T14:19:15.477Z,100467.31
2023-12-09T14:22:18.516Z,100467.19
2023-12-09T14:25:24.749Z,100459.47
2023-12-09T14:28:31.075Z,100453.56
2023-12-09T14:31:33.957Z,100445.75
2023-12-09T14:34:36.945Z,100447.03
2023-12-09T14:37:45.922Z,100439.19
2023-12-09T14:40:51.793Z,100430.16
2023-12-09T14:44:03.392Z,100420.44
2023-12-09T14:47:08.918Z,100409.34
2023-12-09T14:50:14.121Z,100406.47
2023-12-09T14:53:20.872Z,100392.13
2023-12-09T14:56:23.914Z,100388.81
2023-12-09T14:59:30.584Z,100391.38
2023-12-09T15:02:34.425Z,100387.06
2023-12-09T15:05:37.453Z,100377.19
2023-12-09T15:08:42.323Z,100377.03
2023-12-09T15:11:45.455Z,100369.56
2023-12-09T15:14:50.622Z,100361.31
2023-12-09T15:17:57.116Z,100355.44
2023-12-09T15:21:03.316Z,100367.66
2023-12-09T15:24:07.819Z,100368.72
2023-12-09T15:27:14.619Z,100354.25
2023-12-09T15:30:20.046Z,100343.03
2023-12-09T15:33:28.828Z,100346.28
2023-12-09T15:36:32.000Z,100336.94
2023-12-09T15:39:40.326Z,100332.81
2023-12-09T15:42:43.612Z,100324.00
2023-12-09T15:45:48.226Z,100326.31
2023-12-09T15:48:51.253Z,100319.34
2023-12-09T15:51:55.513Z,100311.66
2023-12-09T15:54:58.851Z,100304.56
2023-12-09T15:58:02.111Z,100294.72
2023-12-09T16:01:06.705Z,100289.22
2023-12-09T16:04:09.723Z,100283.53
2023-12-09T16:07:13.106Z,100285.53
2023-12-09T16:10:16.750Z,100276.34
2023-12-09T16:13:24.828Z,100284.31
2023-12-09T16:16:29.443Z,100275.50
2023-12-09T16:19:32.549Z,100272.66
2023-12-09T16:22:35.593Z,100258.28
2023-12-09T16:25:38.944Z,100254.19
2023-12-09T16:28:43.005Z,100242.91
2023-12-09T16:31:47.769Z,100245.97
2023-12-09T16:34:50.923Z,100247.41
2023-12-09T16:37:53.853Z,100231.44
2023-12-09T16:40:56.725Z,100232.03
2023-12-09T16:43:59.520Z,100221.53
2023-12-09T16:47:05.349Z,100211.56
2023-12-09T16:50:11.846Z,100200.06
2023-12-09T16:53:21.374Z,100194.06
2023-12-09T16:56:28.413Z,100188.75
2023-12-09T16:59:33.736Z,100183.31
2023-12-09T17:02:39.197Z,100181.16
2023-12-09T17:05:44.800Z,100176.09
2023-12-09T17:08:49.794Z,100170.34
2023-12-09T17:11:53.999Z,100171.41
2023-12-09T17:14:56.884Z,100165.69
2023-12-09T17:18:01.281Z,100168.88
2023-12-09T17:21:04.578Z,100161.56
2023-12-09T17:24:07.854Z,100158.50
2023-12-09T17:27:11.989Z,100139.38
2023-12-09T17:30:17.125Z,100139.94
2023-12-09T17:33:23.884Z,100128.00
2023-12-09T17:36:28.479Z,100133.69
2023-12-09T17:39:33.773Z,100130.13
2023-12-09T17:42:39.294Z,100110.78
2023-12-09T17:45:43.416Z,100101.16
2023-12-09T17:48:49.178Z,100095.38
2023-12-09T17:51:52.259Z,100069.28
2023-12-09T17:54:55.307Z,100065.84
2023-12-09T17:57:58.931Z,100052.59
2023-12-09T18:01:05.046Z,100045.31
2023-12-09T18:04:09.562Z,100042.25
2023-12-09T18:07:12.537Z,100030.66
2023-12-09T18:10:18.534Z,100025.81
2023-12-09T18:13:24.125Z,100017.88
2023-12-09T18:16:29.207Z,100003.50
2023-12-09T18:19:33.637Z,100007.84
2023-12-09T18:22:37.070Z,100012.31
2023-12-09T18:25:42.108Z,100015.50
2023-12-09T18:28:45.348Z,100007.16
2023-12-09T18:31:48.366Z,100002.06
2023-12-09T18:34:55.741Z,99984.56
2023-12-09T18:38:04.910Z,99991.81
2023-12-09T18:41:10.888Z,99973.84
2023-12-09T18:44:16.525Z,99969.84
2023-12-09T18:47:21.498Z,99956.59
2023-12-09T18:50:25.818Z,99946.31
2023-12-09T18:53:28.887Z,99949.66
2023-12-09T18:56:31.881Z,99933.94
2023-12-09T18:59:34.884Z,99936.06
2023-12-09T19:02:39.966Z,99933.13
2023-12-09T19:05:49.466Z,99932.41
2023-12-09T19:08:54.918Z,99929.00
2023-12-09T19:11:58.372Z,99922.34
2023-12-09T19:15:01.259Z,99907.84
2023-12-09T19:18:07.769Z,99905.72
2023-12-09T19:21:16.495Z,99894.16
2023-12-09T19:24:19.523Z,99895.34
2023-12-09T19:27:22.572Z,99888.13
2023-12-09T19:30:25.674Z,99884.00
2023-12-09T19:33:29.959Z,99873.63
2023-12-09T19:36:34.362Z,99878.22
2023-12-09T19:39:37.412Z,99879.63
2023-12-09T19:42:40.624Z,99880.22
2023-12-09T19:45:43.794Z,99879.75
2023-12-09T19:48:46.807Z,99854.03
2023-12-09T19:51:51.082Z,99854.72
2023-12-09T19:54:54.537Z,99846.13
2023-12-09T19:57:58.270Z,99841.28
2023-12-09T20:01:02.130Z,99837.75
2023-12-09T20:04:05.342Z,99831.97
2023-12-09T20:07:09.749Z,99842.91
2023-12-09T20:10:13.092Z,99825.94
2023-12-09T20:13:17.099Z,99820.50
2023-12-09T20:16:19.937Z,99824.16
2023-12-09T20:19:25.848Z,99814.03
2023-12-09T20:22:30.984Z,99810.94
2023-12-09T20:25:34.431Z,99804.69
2023-12-09T20:28:37.354Z,99798.44
2023-12-09T20:31:40.138Z,99796.56
2023-12-09T20:34:43.195Z,99791.13
2023-12-09T20:37:48.298Z,99796.06
2023-12-09T20:40:51.138Z,99800.09
2023-12-09T20:43:54.042Z,99785.59
2023-12-09T20:46:56.960Z,99782.75
2023-12-09T20:50:00.086Z,99780.41
2023-12-09T20:53:06.927Z,99774.34
2023-12-09T20:56:17.543Z,99770.97
2023-12-09T20:59:20.355Z,99769.06
2023-12-09T21:02:24.820Z,99766.13
2023-12-09T21:05:27.888Z,99764.94
2023-12-09T21:08:32.133Z,99761.63
2023-12-09T21:11:38.480Z,99758.47
2023-12-09T21:14:41.278Z,99745.25
2023-12-09T21:17:44.363Z,99738.66
2023-12-09T21:20:47.356Z,99725.19
2023-12-09T21:23:51.545Z,99730.38
2023-12-09T21:26:54.495Z,99729.31
2023-12-09T21:29:57.586Z,99719.06
2023-12-09T21:33:01.163Z,99721.03
2023-12-09T21:36:04.324Z,99722.78
2023-12-09T21:39:09.903Z,99713.59
2023-12-09T21:42:12.784Z,99707.69
2023-12-09T21:45:15.830Z,99703.69
2023-12-09T21:48:18.813Z,99703.38
2023-12-09T21:51:22.242Z,99700.75
2023-12-09T21:54:26.584Z,99698.84
2023-12-09T21:57:29.566Z,99700.47
2023-12-09T22:00:32.372Z,99694.94
2023-12-09T22:03:35.419Z,99682.00
2023-12-09T22:06:38.342Z,99671.44
2023-12-09T22:09:42.830Z,99668.00
2023-12-09T22:12:47.208Z,99665.63
2023-12-09T22:15:50.295Z,99659.50
2023-12-09T22:18:53.177Z,99653.59
2023-12-09T22:21:56.208Z,99655.97
2023-12-09T22:25:00.729Z,99656.03
2023-12-09T22:28:04.284Z,99641.88
2023-12-09T22:31:09.624Z,99641.50
2023-12-09T22:34:13.054Z,99624.38
2023-12-09T22:37:16.763Z,99620.63
2023-12-09T22:40:21.054Z,99635.47
2023-12-09T22:43:24.042Z,99639.44
2023-12-09T22:46:28.429Z,99644.69
2023-12-09T22:49:31.628Z,99640.75
2023-12-09T22:52:34.536Z,99642.88
2023-12-09T22:55:38.724Z,99641.81
2023-12-09T22:58:41.694Z,99637.66
2023-12-09T23:01:46.195Z,99630.25
2023-12-09T23:04:49.303Z,99634.00
2023-12-09T23:07:52.223Z,99632.72
2023-12-09T23:10:56.532Z,99620.25
2023-12-09T23:13:59.391Z,99607.91
2023-12-09T23:17:02.455Z,99609.72
2023-12-09T23:20:06.584Z,99602.97
2023-12-09T23:23:09.902Z,99601.91
2023-12-09T23:26:14.350Z,99590.31
2023-12-09T23:29:17.160Z,99580.44
2023-12-09T23:32:20.019Z,99583.31
2023-12-09T23:35:22.821Z,99591.41
2023-12-09T23:38:25.696Z,99579.69
2023-12-09T23:41:30.145Z,99580.38
2023-12-09T23:44:32.991Z,99580.94
2023-12-09T23:47:35.989Z,99582.25
2023-12-09T23:50:38.866Z,99585.13
2023-12-09T23:53:41.862Z,99579.78
2023-12-09T23:56:46.024Z,99572.97
2023-12-09T23:59:48.965Z,99581.31
